Hong Kong, Hong Kong

2:05 AM HKT on May 25, 2015 (GMT +0800)
Tung Chung | | Change Station
CLOSE
Current Station
Personal Weather Station
Location: New Territories, NEW TERRITORIES
Elevation: 10 ft
Nearby Weather Stations

Elev 10 ft 22.29 °N, 113.95 °E | Updated 10 seconds ago

Scattered Clouds
Scattered Clouds
81.3 °F
Feels Like 89 °F
N
0.9
Wind Variable Wind from NNW
Gusts 2.5 mph

Today
High -- | Low -- °F
--% Chance of Precip.
Yesterday
High -- | Low -- °F
Precip. -- in
5:41 AM 7:01 PM
Waxing Crescent, 41% visible
Pressure 29.68 in
Visibility 6.2 miles
Clouds Few 1000 ft
Scattered Clouds 4000 ft
Heat Index 89 °F
Dew Point 78 °F
Humidity 88%
Rainfall 0.00 in
Snow Depth Not available.
UV 0.0 out of 12
Pollen Not available.
Air Quality Not available.
Flu Activity Not available.
METAR VHHH 241800Z 29002KT 9999 FEW010 SCT040 28/26 Q1005 NOSIG

More Conditions Fewer Conditions

Pressure 29.68 in
Visibility 6.2 miles
Clouds Few 1000 ft
Scattered Clouds 4000 ft
Heat Index 89 °F
Dew Point 78 °F
Humidity 88%
Rainfall 0.00 in
Snow Depth Not available.
UV 0.0 out of 12
Pollen Not available.
Air Quality Not available.
Flu Activity Not available.
METAR VHHH 241800Z 29002KT 9999 FEW010 SCT040 28/26 Q1005 NOSIG

More Conditions Fewer Conditions

10-Day Weather Forecast

Almanac

Astronomy

May. 25, 2015 Rise Set
Actual Time
Civil Twilight
Nautical Twilight
Astronomical Twilight
Moon
Length of Visible Light
Length of Day
Tomorrow will be .
, % of the Moon is Illuminated

Today's Extremes

Country Highs Country Lows

Community

WunderPhotos

Upload Photos

1,823,813 photos uploaded!

WunderBlogs® & News

Nearby

Air Quality

  Air Quality AQ Index Pollutant
Not available.

Snow Depth

Station Depth Elevation

Earthquake Activity

City Distance Mag. Time & Date
Minimum magnitude displayed is 2.5.

Coastal Water Temperatures

Place Temperature

Stations

Nearby Weather Stations

Station Location Temp. Windchill Dew Point Humidity Wind Precip. Elev Updated Type